Time;durP1;ratioP1;P1;durP2;ratioP2;P2;SDS_P1;SDS_P2;PMS_P1;PMS_P2;Temp;Humidity;BMP_temperature;BMP_pressure;BME280_temperature;BME280_humidity;BME280_pressure;Samples;Min_cycle;Max_cycle;Signal;HPM_P1;HPM_P2
2021/09/25 00:01:09;;;;;;;11.80;3.00;;;;;;;17.53;74.55;101468.63;5034358;28;20138;-65
2021/09/25 00:03:35;;;;;;;9.32;2.90;;;;;;;17.57;74.55;101471.59;5036622;28;20083;-66
2021/09/25 00:06:00;;;;;;;15.18;3.30;;;;;;;17.58;74.27;101468.78;5036348;28;20029;-65
2021/09/25 00:08:25;;;;;;;12.20;3.03;;;;;;;17.59;74.02;101465.16;5018468;28;20025;-66
2021/09/25 00:10:50;;;;;;;7.80;2.75;;;;;;;17.55;74.13;101464.00;5018491;28;20033;-65
2021/09/25 00:13:16;;;;;;;8.90;2.95;;;;;;;17.54;73.98;101467.59;5018538;28;20018;-66
2021/09/25 00:15:42;;;;;;;8.68;2.80;;;;;;;17.46;74.21;101467.09;5036991;28;20349;-65
2021/09/25 00:18:07;;;;;;;9.80;2.88;;;;;;;17.51;74.20;101469.88;5018530;28;20106;-65
2021/09/25 00:20:34;;;;;;;9.90;2.90;;;;;;;17.45;74.20;101468.13;5018516;28;20028;-64
2021/09/25 00:23:00;;;;;;;7.18;3.00;;;;;;;17.36;74.47;101457.94;5018473;28;20059;-65
2021/09/25 00:25:25;;;;;;;12.70;3.00;;;;;;;17.48;73.98;101472.91;5018697;28;20481;-66
2021/09/25 00:27:51;;;;;;;13.43;2.97;;;;;;;17.55;73.43;101468.41;5036102;28;20089;-66
2021/09/25 00:30:17;;;;;;;8.63;2.60;;;;;;;17.46;74.01;101461.88;5036008;28;20032;-65
2021/09/25 00:32:42;;;;;;;10.55;2.90;;;;;;;17.53;73.95;101465.22;5035643;28;20120;-67
2021/09/25 00:35:09;;;;;;;13.52;3.13;;;;;;;17.46;74.16;101460.03;5035615;28;20024;-64
2021/09/25 00:37:35;;;;;;;15.65;3.10;;;;;;;17.44;74.05;101463.91;5035606;28;20044;-64
2021/09/25 00:40:00;;;;;;;7.78;2.67;;;;;;;17.50;73.97;101473.50;5035590;28;20037;-65
2021/09/25 00:42:26;;;;;;;20.27;3.22;;;;;;;17.44;74.34;101467.31;5035569;28;20056;-65
2021/09/25 00:44:51;;;;;;;8.00;3.20;;;;;;;17.32;74.77;101469.84;5035398;28;20025;-65
2021/09/25 00:47:16;;;;;;;15.30;2.90;;;;;;;17.35;74.50;101466.00;5035372;28;20033;-65
2021/09/25 00:49:42;;;;;;;7.35;3.20;;;;;;;17.42;74.38;101474.56;5035327;28;20032;-64
2021/09/25 00:52:07;;;;;;;9.85;3.13;;;;;;;17.33;74.62;101468.03;5017493;28;20468;-64
2021/09/25 00:54:33;;;;;;;12.23;3.25;;;;;;;17.28;75.21;101473.09;5017401;28;20037;-65
2021/09/25 00:56:59;;;;;;;8.63;3.00;;;;;;;17.38;74.71;101468.19;5017586;28;20017;-66
2021/09/25 00:59:24;;;;;;;11.18;3.00;;;;;;;17.44;74.44;101477.78;5017278;28;20416;-65
2021/09/25 01:01:50;;;;;;;8.73;2.90;;;;;;;17.44;74.73;101471.75;5035191;28;20025;-65
2021/09/25 01:04:16;;;;;;;9.52;2.97;;;;;;;17.47;74.36;101471.31;5017382;28;20055;-66
2021/09/25 01:06:42;;;;;;;15.38;3.10;;;;;;;17.39;74.71;101467.16;5017280;28;20022;-67
2021/09/25 01:09:07;;;;;;;8.30;3.30;;;;;;;17.23;75.04;101465.09;5035062;28;20048;-66
2021/09/25 01:11:33;;;;;;;6.78;2.90;;;;;;;17.28;75.20;101462.63;5034586;28;20028;-66
2021/09/25 01:13:59;;;;;;;8.93;3.08;;;;;;;17.21;75.22;101467.13;5017093;28;20116;-66
2021/09/25 01:16:24;;;;;;;9.63;3.60;;;;;;;17.21;75.38;101473.16;5017111;28;20136;-65
2021/09/25 01:18:50;;;;;;;8.40;3.08;;;;;;;17.27;75.29;101471.50;5017173;28;20361;-65
2021/09/25 01:21:16;;;;;;;9.13;3.20;;;;;;;17.29;75.11;101467.66;5034780;28;20100;-65
2021/09/25 01:23:42;;;;;;;9.27;3.70;;;;;;;17.25;75.31;101465.69;5016967;28;20028;-67
2021/09/25 01:26:08;;;;;;;7.43;3.47;;;;;;;17.10;75.89;101461.59;5034716;28;20116;-66
2021/09/25 01:28:36;;;;;;;11.73;3.42;;;;;;;17.10;75.90;101466.00;5016985;28;20033;-65
2021/09/25 01:31:03;;;;;;;6.80;3.45;;;;;;;17.22;75.32;101464.28;5017025;28;20097;-65
2021/09/25 01:33:34;;;;;;;9.00;3.22;;;;;;;17.18;75.67;101465.75;5016911;28;20029;-65
2021/09/25 01:36:00;;;;;;;11.80;3.28;;;;;;;17.19;75.56;101472.56;5016920;28;20037;-66
2021/09/25 01:38:26;;;;;;;7.53;3.63;;;;;;;17.09;76.03;101464.38;5034614;28;20025;-65
2021/09/25 01:40:52;;;;;;;15.18;4.03;;;;;;;17.15;75.82;101468.78;5034619;28;20026;-65
2021/09/25 01:43:17;;;;;;;11.20;3.72;;;;;;;17.18;75.58;101470.97;5019892;28;20021;-66
2021/09/25 01:45:44;;;;;;;10.38;3.80;;;;;;;17.14;75.51;101469.78;5038304;28;20040;-66
2021/09/25 01:48:10;;;;;;;11.07;3.92;;;;;;;17.11;75.81;101470.22;5038287;28;20030;-67
2021/09/25 01:50:36;;;;;;;8.45;3.13;;;;;;;17.08;75.92;101468.03;5038380;28;20120;-66
2021/09/25 01:53:02;;;;;;;7.28;3.38;;;;;;;17.04;76.08;101459.81;5038363;28;20036;-66
2021/09/25 01:55:27;;;;;;;14.07;3.97;;;;;;;17.09;75.82;101475.66;5038651;28;20052;-67
2021/09/25 01:57:53;;;;;;;10.20;4.00;;;;;;;16.98;76.50;101473.75;5020671;28;20021;-67
2021/09/25 02:00:19;;;;;;;6.82;3.63;;;;;;;16.96;76.35;101469.72;5037188;28;20052;-66
2021/09/25 02:02:45;;;;;;;8.93;3.80;;;;;;;17.03;75.94;101468.69;5034837;28;20469;-65
2021/09/25 02:05:11;;;;;;;14.27;4.20;;;;;;;16.94;76.42;101461.31;5016742;28;20034;-65
2021/09/25 02:07:36;;;;;;;8.52;4.03;;;;;;;16.89;76.64;101467.97;5016703;28;20029;-65
2021/09/25 02:10:03;;;;;;;14.18;3.65;;;;;;;16.90;76.67;101461.72;5034514;28;20033;-64
2021/09/25 02:12:28;;;;;;;12.07;4.13;;;;;;;16.90;76.74;101466.94;5034524;28;20032;-64
2021/09/25 02:14:53;;;;;;;10.10;4.10;;;;;;;16.87;76.48;101466.59;5034245;28;20380;-64
2021/09/25 02:17:21;;;;;;;14.13;4.22;;;;;;;16.86;76.81;101463.19;5016393;28;20037;-64
2021/09/25 02:19:47;;;;;;;10.63;4.30;;;;;;;16.75;76.98;101463.03;5016992;28;20021;-65
2021/09/25 02:22:12;;;;;;;10.45;4.40;;;;;;;16.82;76.85;101464.59;5016738;28;20024;-65
2021/09/25 02:24:37;;;;;;;8.90;4.03;;;;;;;16.87;76.63;101467.38;5034054;28;20100;-65
2021/09/25 02:27:04;;;;;;;11.23;4.25;;;;;;;16.80;76.86;101463.22;5016636;28;20021;-64
2021/09/25 02:29:29;;;;;;;11.38;4.20;;;;;;;16.75;76.89;101461.22;5034429;28;20029;-65
2021/09/25 02:31:54;;;;;;;11.57;4.13;;;;;;;16.80;76.98;101463.22;5034094;28;20077;-65
2021/09/25 02:34:20;;;;;;;11.43;4.45;;;;;;;16.83;77.01;101455.78;5034646;28;20029;-64
2021/09/25 02:36:45;;;;;;;11.40;4.43;;;;;;;16.75;77.02;101461.22;5016434;28;20037;-65
2021/09/25 02:39:10;;;;;;;10.23;4.68;;;;;;;16.74;77.04;101462.22;5016513;28;20101;-65
2021/09/25 02:41:35;;;;;;;10.82;4.63;;;;;;;16.75;77.16;101456.00;5016120;28;20103;-64
2021/09/25 02:44:01;;;;;;;11.50;4.93;;;;;;;16.70;77.34;101458.44;5033693;28;20010;-65
2021/09/25 02:46:26;;;;;;;11.90;4.97;;;;;;;16.71;77.34;101452.19;5033578;28;20502;-64
2021/09/25 02:48:52;;;;;;;9.75;4.80;;;;;;;16.82;76.68;101456.78;5033592;28;20036;-65
2021/09/25 02:51:17;;;;;;;11.20;4.80;;;;;;;16.67;77.19;101453.63;5033547;28;20025;-65
2021/09/25 02:53:43;;;;;;;12.45;5.57;;;;;;;16.63;77.59;101452.44;5034073;28;20037;-64
2021/09/25 02:56:08;;;;;;;10.05;5.13;;;;;;;16.67;77.68;101453.63;5033592;28;20464;-64
2021/09/25 02:58:34;;;;;;;12.60;5.45;;;;;;;16.69;77.48;101454.22;5015834;28;20029;-65
2021/09/25 03:00:59;;;;;;;11.77;5.30;;;;;;;16.72;77.30;101455.63;5033285;28;20053;-65
2021/09/25 03:03:24;;;;;;;10.80;5.18;;;;;;;16.63;77.69;101450.66;5033447;28;20022;-65
2021/09/25 03:05:50;;;;;;;13.25;5.45;;;;;;;16.59;78.13;101456.50;5015686;28;20380;-65
2021/09/25 03:08:15;;;;;;;16.38;6.10;;;;;;;16.55;78.15;101453.50;5015620;28;20119;-64
2021/09/25 03:10:40;;;;;;;12.88;5.55;;;;;;;16.61;78.10;101459.69;5033612;28;20033;-65
2021/09/25 03:13:05;;;;;;;14.25;5.38;;;;;;;16.62;78.15;101462.09;5033425;28;20494;-65
2021/09/25 03:15:32;;;;;;;12.52;5.90;;;;;;;16.68;77.89;101458.63;5033276;28;20021;-64
2021/09/25 03:17:57;;;;;;;14.73;6.22;;;;;;;16.60;77.72;101455.47;5015388;28;20025;-64
2021/09/25 03:20:22;;;;;;;12.40;6.00;;;;;;;16.66;77.79;101465.09;5033722;28;20032;-64
2021/09/25 03:22:47;;;;;;;17.55;6.20;;;;;;;16.65;78.03;101464.28;5015480;28;20087;-65
2021/09/25 03:25:14;;;;;;;17.08;6.65;;;;;;;16.60;78.31;101461.50;5033275;28;20108;-65
2021/09/25 03:27:40;;;;;;;15.38;5.70;;;;;;;16.65;78.14;101466.09;5015373;28;20029;-68
2021/09/25 03:30:08;;;;;;;15.35;5.88;;;;;;;16.57;78.31;101464.53;5033398;28;20028;-64
2021/09/25 03:32:34;;;;;;;12.90;6.75;;;;;;;16.59;78.36;101469.53;5033026;28;20040;-65
2021/09/25 03:34:59;;;;;;;18.13;6.60;;;;;;;16.57;78.64;101469.75;5034361;28;20033;-65
2021/09/25 03:37:24;;;;;;;11.82;6.35;;;;;;;16.53;78.69;101476.41;5037066;28;20021;-65
2021/09/25 03:39:50;;;;;;;20.63;7.53;;;;;;;16.47;79.05;101475.41;5037111;28;20025;-64
2021/09/25 03:42:15;;;;;;;18.30;6.72;;;;;;;16.49;79.20;101474.44;5019253;28;20031;-65
2021/09/25 03:44:41;;;;;;;15.68;6.70;;;;;;;16.51;79.06;101475.78;5019230;28;20030;-65
2021/09/25 03:47:06;;;;;;;27.33;7.20;;;;;;;16.44;79.41;101473.22;5037146;28;20029;-65
2021/09/25 03:49:31;;;;;;;16.13;6.97;;;;;;;16.52;78.91;101477.41;5037154;28;20104;-66
2021/09/25 03:51:58;;;;;;;16.45;6.63;;;;;;;16.46;79.40;101476.44;5036787;28;20022;-66
2021/09/25 03:54:23;;;;;;;19.30;6.93;;;;;;;16.50;79.34;101473.41;5036809;28;20034;-65
2021/09/25 03:56:48;;;;;;;18.88;7.18;;;;;;;16.52;79.21;101461.75;5036767;28;20025;-65
2021/09/25 03:59:14;;;;;;;22.73;6.88;;;;;;;16.50;79.35;101463.78;5036614;28;20042;-65
2021/09/25 04:01:39;;;;;;;14.35;7.03;;;;;;;16.49;79.80;101467.41;5019408;28;20549;-64
2021/09/25 04:04:04;;;;;;;16.35;7.32;;;;;;;16.45;79.61;101466.19;5036621;28;20053;-63
2021/09/25 04:06:29;;;;;;;19.90;7.65;;;;;;;16.40;79.91;101466.84;5036478;28;20025;-65
2021/09/25 04:08:55;;;;;;;17.55;7.45;;;;;;;16.30;80.45;101455.25;5018822;28;20025;-64
2021/09/25 04:11:20;;;;;;;17.45;7.05;;;;;;;16.36;80.14;101464.84;5036446;28;20021;-64
2021/09/25 04:13:45;;;;;;;19.48;8.10;;;;;;;16.28;80.53;101463.25;5036393;28;20068;-64
2021/09/25 04:16:11;;;;;;;15.57;7.63;;;;;;;16.41;79.93;101472.84;5036357;28;20110;-64
2021/09/25 04:18:36;;;;;;;20.45;7.57;;;;;;;16.40;79.84;101476.44;5018583;28;20164;-64
2021/09/25 04:21:01;;;;;;;12.82;7.43;;;;;;;16.44;79.83;101472.44;5036316;28;20037;-65
2021/09/25 04:23:27;;;;;;;14.82;7.95;;;;;;;16.43;79.96;101463.81;5036236;28;20129;-64
2021/09/25 04:25:52;;;;;;;18.58;7.90;;;;;;;16.33;80.25;101463.44;5036213;28;20022;-65
2021/09/25 04:28:17;;;;;;;16.27;7.85;;;;;;;16.31;80.53;101470.66;5036197;28;20069;-64
2021/09/25 04:30:43;;;;;;;21.30;7.97;;;;;;;16.29;80.51;101464.88;5018388;28;20029;-64
2021/09/25 04:33:10;;;;;;;17.00;7.45;;;;;;;16.30;80.67;101457.84;5036494;28;20072;-64
2021/09/25 04:35:36;;;;;;;18.70;8.48;;;;;;;16.39;80.27;101467.03;5036042;28;20147;-64
2021/09/25 04:38:02;;;;;;;16.38;8.55;;;;;;;16.40;80.21;101472.06;5036029;28;20392;-64
2021/09/25 04:40:29;;;;;;;15.73;8.07;;;;;;;16.44;80.35;101462.00;5035940;28;20022;-64
2021/09/25 04:42:55;;;;;;;22.95;9.15;;;;;;;16.44;80.09;101460.19;5035895;28;20483;-65
2021/09/25 04:45:20;;;;;;;20.45;9.98;;;;;;;16.12;81.51;101461.16;5035869;28;20022;-65
2021/09/25 04:47:46;;;;;;;17.95;9.15;;;;;;;16.17;81.37;101461.31;5034902;28;20032;-65
2021/09/25 04:50:13;;;;;;;20.52;9.57;;;;;;;16.26;80.95;101467.91;5035674;28;20037;-65
2021/09/25 04:52:38;;;;;;;20.23;9.25;;;;;;;16.26;80.98;101462.69;5035727;28;20102;-64
2021/09/25 04:55:05;;;;;;;20.55;9.95;;;;;;;16.37;80.60;101458.59;5018165;28;20025;-65
2021/09/25 04:57:31;;;;;;;21.27;9.05;;;;;;;16.40;80.38;101466.00;5017880;28;20053;-64
2021/09/25 04:59:56;;;;;;;20.92;10.25;;;;;;;16.24;80.96;101459.50;5035410;28;20115;-65
2021/09/25 05:02:21;;;;;;;19.63;10.70;;;;;;;16.23;81.02;101456.09;5035543;28;20030;-65
2021/09/25 05:04:46;;;;;;;23.45;10.30;;;;;;;16.17;81.14;101456.91;5035504;28;20527;-65
2021/09/25 05:07:12;;;;;;;21.20;9.88;;;;;;;16.19;80.99;101454.88;5035775;28;20048;-64
2021/09/25 05:09:37;;;;;;;21.88;10.57;;;;;;;16.28;80.97;101452.03;5035397;28;20025;-64
2021/09/25 05:12:03;;;;;;;21.75;10.45;;;;;;;16.21;81.23;101450.28;5035288;28;20030;-64
2021/09/25 05:14:28;;;;;;;23.92;11.30;;;;;;;16.19;81.04;101449.66;5035330;28;20025;-64
2021/09/25 05:16:54;;;;;;;24.70;11.23;;;;;;;16.20;81.42;101456.50;5035248;28;20021;-64
2021/09/25 05:19:19;;;;;;;25.15;10.18;;;;;;;16.23;81.10;101457.91;5035504;28;20040;-64
2021/09/25 05:21:45;;;;;;;24.30;10.77;;;;;;;16.18;81.52;101460.31;5035169;28;20021;-64
2021/09/25 05:24:10;;;;;;;24.48;10.20;;;;;;;16.11;81.91;101473.41;5017287;28;20029;-64
2021/09/25 05:26:35;;;;;;;21.40;10.50;;;;;;;16.23;81.33;101474.34;5035346;28;20028;-64
2021/09/25 05:29:02;;;;;;;18.95;10.52;;;;;;;16.15;81.58;101471.16;5035039;28;20018;-64
2021/09/25 05:31:28;;;;;;;19.52;9.73;;;;;;;16.26;81.38;101480.16;5035647;28;20487;-65
2021/09/25 05:33:53;;;;;;;29.05;11.00;;;;;;;16.21;81.58;101481.56;5017022;28;20065;-63
2021/09/25 05:36:19;;;;;;;23.15;10.25;;;;;;;16.17;81.82;101479.56;5035109;28;20029;-64
2021/09/25 05:38:44;;;;;;;23.02;10.45;;;;;;;16.14;82.09;101486.00;5034859;28;20036;-64
2021/09/25 05:41:09;;;;;;;20.02;10.65;;;;;;;16.12;82.24;101482.81;5035028;28;20022;-67
2021/09/25 05:43:35;;;;;;;22.77;9.85;;;;;;;16.26;81.57;101485.38;5017033;28;20472;-64
2021/09/25 05:46:00;;;;;;;20.98;10.85;;;;;;;16.28;81.50;101484.13;5034978;28;20057;-66
2021/09/25 05:48:25;;;;;;;26.55;10.45;;;;;;;16.44;80.76;101475.84;5034698;28;20522;-65
2021/09/25 05:50:51;;;;;;;27.02;11.15;;;;;;;16.34;81.33;101477.28;5034603;28;20047;-65
2021/09/25 05:53:16;;;;;;;20.85;10.38;;;;;;;16.36;81.34;101478.69;5016862;28;20087;-66
2021/09/25 05:55:41;;;;;;;23.73;10.38;;;;;;;16.39;81.38;101486.09;5016678;28;20032;-66
2021/09/25 05:58:06;;;;;;;24.35;11.00;;;;;;;16.37;81.25;101485.53;5034432;28;20384;-66
2021/09/25 06:00:32;;;;;;;22.55;10.73;;;;;;;16.35;81.62;101484.91;5016803;28;20128;-66
2021/09/25 06:02:57;;;;;;;19.27;10.52;;;;;;;16.28;81.80;101483.34;5034360;28;20021;-66
2021/09/25 06:05:23;;;;;;;22.65;10.98;;;;;;;16.34;81.62;101479.91;5034252;28;20056;-65
2021/09/25 06:07:48;;;;;;;21.35;10.65;;;;;;;16.43;81.33;101479.47;5016526;28;20021;-66
2021/09/25 06:10:14;;;;;;;26.20;10.98;;;;;;;16.58;80.90;101483.59;5016486;28;20121;-65
2021/09/25 06:12:40;;;;;;;19.65;10.20;;;;;;;16.65;80.55;101479.94;5034125;28;20025;-66
2021/09/25 06:15:07;;;;;;;25.35;10.93;;;;;;;16.50;81.17;101479.41;5034152;28;20025;-66
2021/09/25 06:17:33;;;;;;;24.55;11.05;;;;;;;16.41;81.60;101484.09;5034145;28;20021;-72
2021/09/25 06:19:58;;;;;;;21.75;10.70;;;;;;;16.43;81.59;101494.31;5016317;28;20032;-66
2021/09/25 06:22:25;;;;;;;22.35;10.75;;;;;;;16.56;81.36;101486.41;5034001;28;20021;-65
2021/09/25 06:24:50;;;;;;;27.73;11.25;;;;;;;16.53;81.67;101492.03;5034599;28;20049;-66
2021/09/25 06:27:16;;;;;;;23.50;11.45;;;;;;;16.61;81.28;101491.81;5017094;28;20036;-66
2021/09/25 06:29:41;;;;;;;24.38;10.95;;;;;;;16.51;81.78;101496.66;5016996;28;20029;-65
2021/09/25 06:32:07;;;;;;;34.35;11.85;;;;;;;16.59;81.57;101493.81;5015971;28;20100;-65
2021/09/25 06:34:32;;;;;;;24.45;11.40;;;;;;;16.65;81.52;101485.16;5015925;28;20435;-65
2021/09/25 06:36:57;;;;;;;22.73;11.20;;;;;;;16.66;81.68;101480.75;5033622;28;20064;-65
2021/09/25 06:39:23;;;;;;;29.15;10.88;;;;;;;16.70;81.34;101480.09;5015910;28;20033;-65
2021/09/25 06:41:49;;;;;;;27.90;11.80;;;;;;;16.81;80.86;101477.88;5015960;28;20138;-64
2021/09/25 06:44:14;;;;;;;24.73;11.52;;;;;;;16.83;81.33;101487.09;5033798;28;20036;-65
2021/09/25 06:46:39;;;;;;;26.55;11.20;;;;;;;16.90;80.87;101493.06;5033988;28;20298;-64
2021/09/25 06:49:04;;;;;;;27.92;11.98;;;;;;;17.05;80.38;101497.97;5015720;28;20074;-65
2021/09/25 06:51:30;;;;;;;23.20;11.30;;;;;;;16.98;80.69;101499.84;5033482;28;20025;-65
2021/09/25 06:53:56;;;;;;;24.13;12.27;;;;;;;17.05;80.49;101505.00;5033285;28;20071;-65
2021/09/25 06:56:23;;;;;;;28.45;11.38;;;;;;;17.07;80.63;101506.41;5033435;28;20021;-65
2021/09/25 06:58:48;;;;;;;28.35;12.20;;;;;;;16.98;80.87;101499.84;5015697;28;20540;-64
2021/09/25 07:01:13;;;;;;;29.30;12.48;;;;;;;16.95;81.04;101495.03;5033157;28;20081;-64
2021/09/25 07:03:39;;;;;;;31.75;11.63;;;;;;;17.09;80.83;101501.78;5015544;28;20127;-64
2021/09/25 07:06:04;;;;;;;26.60;12.52;;;;;;;17.03;80.91;101507.03;5033321;28;20057;-65
2021/09/25 07:08:29;;;;;;;26.92;12.02;;;;;;;17.14;80.50;101514.97;5033551;28;20033;-65
2021/09/25 07:10:55;;;;;;;27.05;12.68;;;;;;;17.21;80.20;101511.53;5033365;28;20035;-65
2021/09/25 07:13:20;;;;;;;29.10;11.93;;;;;;;17.05;80.94;101510.22;5015585;28;20029;-65
2021/09/25 07:15:45;;;;;;;31.33;13.45;;;;;;;17.14;80.64;101514.19;5015550;28;20021;-65
2021/09/25 07:18:11;;;;;;;25.90;12.25;;;;;;;17.16;80.64;101506.94;5033189;28;20059;-64
2021/09/25 07:20:37;;;;;;;28.02;12.68;;;;;;;17.23;80.68;101509.50;5015454;28;20132;-65
2021/09/25 07:23:03;;;;;;;30.45;12.77;;;;;;;17.37;80.12;101513.59;5033091;28;20022;-66
2021/09/25 07:25:29;;;;;;;31.25;12.85;;;;;;;17.37;80.08;101513.59;5033112;28;20033;-64
2021/09/25 07:27:55;;;;;;;35.15;13.15;;;;;;;17.44;79.75;101519.56;5033082;28;20022;-65
2021/09/25 07:30:21;;;;;;;33.47;13.20;;;;;;;17.37;80.04;101516.22;5033577;28;20025;-65
2021/09/25 07:32:46;;;;;;;25.08;13.60;;;;;;;17.22;80.78;101524.38;5015615;28;20408;-65
2021/09/25 07:35:13;;;;;;;31.17;14.07;;;;;;;17.56;79.65;101522.28;5033250;28;20029;-65
2021/09/25 07:37:39;;;;;;;33.42;13.70;;;;;;;17.49;79.56;101524.97;5015452;28;20026;-65
2021/09/25 07:40:06;;;;;;;34.25;13.90;;;;;;;17.31;80.40;101535.34;5015822;28;20375;-66
2021/09/25 07:42:31;;;;;;;33.47;12.98;;;;;;;17.43;80.08;101536.25;5033024;28;20026;-66
2021/09/25 07:44:57;;;;;;;33.33;13.57;;;;;;;17.46;80.11;101542.88;5032936;28;20028;-66
2021/09/25 07:47:23;;;;;;;26.83;13.25;;;;;;;17.32;80.61;101542.16;5033143;28;20056;-65
2021/09/25 07:49:48;;;;;;;30.40;13.85;;;;;;;17.46;80.42;101553.31;5015258;28;20480;-65
2021/09/25 07:52:13;;;;;;;31.88;14.27;;;;;;;17.50;80.31;101554.50;5033103;28;20029;-66
2021/09/25 07:54:39;;;;;;;33.53;14.55;;;;;;;17.43;80.46;101554.53;5015217;28;20083;-65
2021/09/25 07:57:04;;;;;;;28.92;14.80;;;;;;;17.48;80.56;101557.31;5032801;28;20465;-65
2021/09/25 07:59:29;;;;;;;34.40;14.80;;;;;;;17.35;80.80;101563.47;5015148;28;20049;-64
2021/09/25 08:01:54;;;;;;;31.77;14.75;;;;;;;17.49;80.64;101564.16;5033061;28;20116;-66
2021/09/25 08:04:20;;;;;;;28.67;14.73;;;;;;;17.67;80.05;101565.22;5033076;28;20064;-66
2021/09/25 08:06:45;;;;;;;30.55;15.15;;;;;;;17.86;79.29;101566.84;5033399;28;20021;-65
2021/09/25 08:09:10;;;;;;;37.28;15.15;;;;;;;17.88;79.10;101572.69;5032787;28;20098;-65
2021/09/25 08:11:36;;;;;;;30.48;14.60;;;;;;;18.07;78.78;101583.16;5032724;28;20021;-65
2021/09/25 08:14:02;;;;;;;36.38;15.23;;;;;;;18.16;78.00;101585.28;5032650;28;20037;-64
2021/09/25 08:16:27;;;;;;;28.10;14.57;;;;;;;18.06;78.40;101578.94;5014939;28;20061;-65
2021/09/25 08:18:53;;;;;;;34.67;15.60;;;;;;;18.22;78.10;101588.84;5032811;28;20137;-65
2021/09/25 08:21:20;;;;;;;37.15;14.82;;;;;;;18.04;78.59;101589.63;5015134;28;20358;-64
2021/09/25 08:23:45;;;;;;;34.25;15.38;;;;;;;17.95;79.24;101590.91;5018568;28;20463;-66
2021/09/25 08:26:11;;;;;;;35.28;16.13;;;;;;;18.06;78.91;101592.81;5036225;28;20021;-65
2021/09/25 08:28:36;;;;;;;48.10;16.77;;;;;;;17.89;79.44;101597.81;5018421;28;20018;-65
2021/09/25 08:31:01;;;;;;;42.85;16.08;;;;;;;17.96;79.65;101595.94;5036070;28;20036;-65
2021/09/25 08:33:26;;;;;;;35.88;16.15;;;;;;;18.09;79.08;101594.19;5036082;28;20056;-63
2021/09/25 08:35:52;;;;;;;44.05;17.17;;;;;;;18.02;79.26;101597.69;5018188;28;20021;-65
2021/09/25 08:38:17;;;;;;;41.30;17.95;;;;;;;18.03;79.59;101614.16;5018121;28;20033;-65
2021/09/25 08:40:43;;;;;;;43.72;17.38;;;;;;;18.13;79.50;101603.22;5035891;28;20103;-65
2021/09/25 08:43:08;;;;;;;43.95;17.70;;;;;;;18.12;79.31;101612.88;5035821;28;20068;-65
2021/09/25 08:45:34;;;;;;;40.47;18.10;;;;;;;18.10;79.93;101607.06;5018039;28;20029;-65
2021/09/25 08:51:20;;;;;;;45.92;17.15;;;;;;;18.09;80.04;101620.34;5035957;28;20174;-64
2021/09/25 08:53:46;;;;;;;43.40;16.08;;;;;;;18.22;79.52;101625.47;5035546;28;20112;-64
2021/09/25 08:56:13;;;;;;;43.95;17.90;;;;;;;18.30;78.87;101621.75;5017818;28;20061;-65
2021/09/25 08:58:39;;;;;;;42.10;16.73;;;;;;;18.19;79.57;101620.66;5017837;28;20029;-66
2021/09/25 09:01:05;;;;;;;38.50;16.85;;;;;;;18.29;79.26;101620.94;5035354;28;20056;-65
2021/09/25 09:03:31;;;;;;;35.85;17.10;;;;;;;18.25;79.08;101614.56;5017996;28;20021;-65
2021/09/25 09:06:05;;;;;;;35.42;16.13;;;;;;;18.37;78.86;101617.25;5035821;28;20026;-66
2021/09/25 09:08:31;;;;;;;44.15;17.73;;;;;;;18.34;79.21;101623.72;5035344;28;20108;-65
2021/09/25 09:10:56;;;;;;;39.13;18.02;;;;;;;18.54;77.99;101622.72;5017378;28;20119;-66
2021/09/25 09:13:22;;;;;;;40.67;17.13;;;;;;;18.69;77.83;101628.34;5035492;28;20495;-66
2021/09/25 09:15:51;;;;;;;44.25;18.92;;;;;;;18.65;77.45;101619.34;5035759;28;20033;-65
2021/09/25 09:18:19;;;;;;;49.97;19.85;;;;;;;18.84;76.74;101625.38;5035184;28;20037;-65
2021/09/25 09:20:59;;;;;;;43.45;18.80;;;;;;;18.55;77.96;101625.09;5017220;28;20069;-65
2021/09/25 09:23:25;;;;;;;38.60;17.65;;;;;;;18.78;77.37;101616.59;5017232;28;20021;-65
2021/09/25 09:25:50;;;;;;;43.05;19.50;;;;;;;18.62;77.40;101619.78;5034994;28;20531;-65
2021/09/25 09:28:24;;;;;;;48.03;19.05;;;;;;;18.76;77.32;101621.25;5035260;28;20428;-65
2021/09/25 09:30:52;;;;;;;45.78;18.77;;;;;;;18.87;76.71;101624.94;5017233;28;20104;-65
2021/09/25 09:33:36;;;;;;;40.08;18.48;;;;;;;18.83;77.08;101623.78;5016987;28;20029;-66
2021/09/25 09:36:33;;;;;;;41.00;19.38;;;;;;;18.79;76.75;101620.81;5035050;28;20036;-67
2021/09/25 09:39:17;;;;;;;45.78;19.30;;;;;;;18.70;77.33;101629.94;5035407;28;20033;-65
2021/09/25 09:41:52;;;;;;;42.22;19.50;;;;;;;18.60;77.73;101624.44;5017097;28;20092;-66
2021/09/25 09:44:20;;;;;;;37.58;19.30;;;;;;;18.64;77.63;101634.28;5016938;28;20164;-64
2021/09/25 09:46:54;;;;;;;41.88;18.98;;;;;;;18.61;77.88;101636.50;5036121;28;20542;-64
2021/09/25 09:49:33;;;;;;;41.88;18.92;;;;;;;18.75;76.71;101637.97;5036227;28;20037;-65
2021/09/25 09:52:02;;;;;;;43.47;18.50;;;;;;;18.80;76.64;101632.09;5035344;28;20488;-64
2021/09/25 09:54:45;;;;;;;40.58;19.95;;;;;;;18.99;76.13;101630.22;5016676;28;20022;-63
2021/09/25 09:57:19;;;;;;;37.80;19.30;;;;;;;18.72;76.78;101641.78;5017856;28;20444;-64
2021/09/25 09:59:46;;;;;;;38.22;18.02;;;;;;;18.91;76.15;101639.19;5016790;28;20107;-64
2021/09/25 10:02:12;;;;;;;37.60;18.80;;;;;;;18.79;76.62;101641.75;5016835;28;20021;-66
2021/09/25 10:04:38;;;;;;;39.60;18.10;;;;;;;18.68;77.45;101635.41;5034256;28;20052;-65
2021/09/25 10:07:03;;;;;;;33.67;17.73;;;;;;;18.57;77.70;101637.97;5016446;28;20384;-64
2021/09/25 10:09:31;;;;;;;37.42;19.48;;;;;;;18.83;76.59;101634.25;5034105;28;20033;-65
2021/09/25 10:11:59;;;;;;;34.80;18.65;;;;;;;18.99;76.08;101620.56;5034257;28;20495;-65
2021/09/25 10:14:27;;;;;;;35.10;18.15;;;;;;;19.02;76.28;101635.00;5015878;28;20113;-64
2021/09/25 10:16:55;;;;;;;36.75;18.98;;;;;;;18.98;76.50;101626.81;5033808;28;20091;-65
2021/09/25 10:19:26;;;;;;;37.53;18.38;;;;;;;19.22;75.62;101627.69;5033828;28;20021;-64
2021/09/25 10:21:54;;;;;;;38.20;18.08;;;;;;;19.44;74.67;101619.31;5016247;28;20499;-64
2021/09/25 10:24:23;;;;;;;35.53;19.52;;;;;;;19.42;74.81;101629.19;5033970;28;20025;-63
2021/09/25 10:26:49;;;;;;;35.13;18.80;;;;;;;19.53;74.43;101625.81;5033855;28;20413;-64
2021/09/25 10:29:21;;;;;;;36.50;18.75;;;;;;;19.65;74.08;101633.69;5015958;28;20033;-64
2021/09/25 10:31:48;;;;;;;39.38;19.85;;;;;;;19.67;73.63;101637.72;5033746;28;20029;-63
2021/09/25 10:34:19;;;;;;;40.30;19.38;;;;;;;19.83;73.17;101641.50;5015714;28;20103;-64
2021/09/25 10:36:51;;;;;;;36.25;19.30;;;;;;;19.64;73.52;101632.88;5015986;28;20030;-64
2021/09/25 10:39:36;;;;;;;33.30;18.63;;;;;;;19.87;72.72;101631.34;5016076;28;20017;-64
2021/09/25 10:42:11;;;;;;;34.67;17.88;;;;;;;20.44;70.91;101632.31;5033913;28;20379;-67
2021/09/25 10:44:52;;;;;;;34.13;18.35;;;;;;;21.37;67.89;101632.22;5015068;28;20018;-66
2021/09/25 10:47:22;;;;;;;33.72;18.05;;;;;;;21.53;66.88;101634.06;5033384;28;20060;-67
2021/09/25 10:49:50;;;;;;;35.67;17.75;;;;;;;21.14;68.92;101631.28;5015716;28;20029;-66
2021/09/25 10:52:19;;;;;;;33.75;18.55;;;;;;;20.75;69.71;101635.56;5015690;28;20021;-66
2021/09/25 10:58:27;;;;;;;30.90;18.40;;;;;;;20.15;72.03;101636.69;5033561;28;20491;-65
2021/09/25 11:00:54;;;;;;;32.78;18.77;;;;;;;20.21;71.81;101637.59;5033206;28;20064;-66
2021/09/25 11:03:47;;;;;;;32.35;18.50;;;;;;;20.28;71.21;101633.84;5033009;28;20018;-66
2021/09/25 11:06:39;;;;;;;36.28;19.27;;;;;;;20.05;72.16;101636.47;5014524;28;20043;-66
2021/09/25 11:09:33;;;;;;;32.40;17.15;;;;;;;20.74;69.91;101628.69;5033509;28;20460;-66
2021/09/25 11:12:13;;;;;;;33.67;18.75;;;;;;;21.70;66.28;101623.53;5015396;28;20533;-66
2021/09/25 11:14:51;;;;;;;35.08;19.10;;;;;;;22.54;63.96;101617.25;5015586;28;20064;-64
2021/09/25 11:17:16;;;;;;;33.00;18.45;;;;;;;21.95;64.63;101620.47;5032906;28;20365;-66
2021/09/25 11:19:42;;;;;;;33.03;18.70;;;;;;;21.78;65.77;101624.94;5015185;28;20030;-65